Time;durP1;ratioP1;P1;durP2;ratioP2;P2;SDS_P1;SDS_P2;PMS_P1;PMS_P2;Temp;Humidity;BMP_temperature;BMP_pressure;BME280_temperature;BME280_humidity;BME280_pressure;Samples;Min_cycle;Max_cycle;Signal;HPM_P1;HPM_P2
2022/04/13 00:00:31;;;;;;;13.30;6.57;;;;;;;13.56;73.69;101078.66;5017207;28;20100;-42
2022/04/13 00:02:57;;;;;;;14.00;6.57;;;;;;;13.48;73.93;101077.03;5017141;28;20447;-42
2022/04/13 00:05:22;;;;;;;17.98;6.93;;;;;;;13.44;74.16;101079.25;5017101;28;20057;-42
2022/04/13 00:07:47;;;;;;;14.13;6.55;;;;;;;13.41;74.29;101084.03;5017223;28;20034;-42
2022/04/13 00:10:13;;;;;;;13.00;6.38;;;;;;;13.42;74.41;101083.03;4999363;28;20491;-42
2022/04/13 00:12:39;;;;;;;13.73;6.72;;;;;;;13.39;74.54;101086.81;5016806;28;20050;-42
2022/04/13 00:15:06;;;;;;;19.60;6.88;;;;;;;13.38;73.91;101090.41;5016861;28;20384;-42
2022/04/13 00:17:32;;;;;;;15.82;6.65;;;;;;;13.34;74.40;101086.59;5017121;28;20037;-42
2022/04/13 00:19:58;;;;;;;13.63;6.78;;;;;;;13.27;73.76;101083.22;5017798;28;20026;-40
2022/04/13 00:22:24;;;;;;;11.85;6.50;;;;;;;13.31;74.26;101095.56;5016805;28;20391;-42
2022/04/13 00:24:49;;;;;;;22.15;7.65;;;;;;;13.32;73.13;101089.41;5016616;28;20030;-42
2022/04/13 00:27:14;;;;;;;16.25;7.85;;;;;;;13.20;73.72;101100.50;5016539;28;20057;-42
2022/04/13 00:29:40;;;;;;;19.88;8.90;;;;;;;13.26;73.30;101104.94;5016633;28;20026;-42
2022/04/13 00:32:06;;;;;;;18.77;8.38;;;;;;;13.29;73.12;101099.38;5016559;28;20034;-42
2022/04/13 00:34:31;;;;;;;16.55;8.68;;;;;;;13.32;73.23;101097.19;4999374;28;20388;-42
2022/04/13 00:36:57;;;;;;;16.10;8.02;;;;;;;13.28;73.02;101088.19;5016777;28;20032;-42
2022/04/13 00:39:24;;;;;;;15.82;8.65;;;;;;;13.25;73.00;101087.75;5016764;28;20100;-42
2022/04/13 00:42:06;;;;;;;17.75;8.57;;;;;;;13.14;73.41;101106.50;5016552;28;20475;-42
2022/04/13 00:44:33;;;;;;;19.77;8.17;;;;;;;13.05;74.14;101114.44;5016627;28;20057;-42
2022/04/13 00:47:01;;;;;;;18.15;8.48;;;;;;;13.08;74.52;101115.84;5016234;28;20117;-42
2022/04/13 00:49:27;;;;;;;18.27;8.30;;;;;;;13.05;74.23;101114.44;5016542;28;20013;-41
2022/04/13 00:51:53;;;;;;;19.02;8.32;;;;;;;13.01;74.17;101115.84;5016265;28;20026;-42
2022/04/13 00:54:19;;;;;;;15.13;8.20;;;;;;;13.04;73.87;101119.84;5016663;28;20423;-42
2022/04/13 00:56:48;;;;;;;20.35;8.07;;;;;;;13.05;73.94;101122.22;5016521;28;20102;-42
2022/04/13 00:59:14;;;;;;;16.50;7.50;;;;;;;12.98;74.12;101118.81;5016210;28;20503;-42
2022/04/13 01:01:48;;;;;;;14.20;7.25;;;;;;;12.94;74.04;101122.00;5015447;28;20424;-46
2022/04/13 01:04:15;;;;;;;17.40;7.82;;;;;;;12.96;74.38;101132.97;5016648;28;20121;-42
2022/04/13 01:06:42;;;;;;;20.48;7.55;;;;;;;12.96;74.62;101128.59;5016534;28;20026;-43
2022/04/13 01:09:11;;;;;;;21.23;7.63;;;;;;;12.88;74.15;101145.09;5015932;28;20091;-41
2022/04/13 01:11:36;;;;;;;15.30;7.30;;;;;;;12.90;74.18;101141.53;5015787;28;20046;-42
2022/04/13 01:14:01;;;;;;;19.83;7.40;;;;;;;12.84;74.50;101138.72;5015919;28;20030;-42
2022/04/13 01:16:27;;;;;;;14.00;7.75;;;;;;;12.80;75.31;101137.50;5016424;28;20037;-42
2022/04/13 01:18:53;;;;;;;18.15;7.82;;;;;;;12.74;75.09;101140.06;5015792;28;20022;-42
2022/04/13 01:21:34;;;;;;;15.77;7.45;;;;;;;12.77;75.42;101150.03;4998238;28;20401;-42
2022/04/13 01:24:02;;;;;;;17.08;7.47;;;;;;;12.74;75.37;101150.44;5015705;28;20053;-42
2022/04/13 01:26:27;;;;;;;19.40;7.95;;;;;;;12.74;75.07;101153.81;5016126;28;20025;-42
2022/04/13 01:28:52;;;;;;;17.85;8.23;;;;;;;12.69;75.81;101155.38;5015925;28;20022;-42
2022/04/13 01:31:18;;;;;;;20.30;8.02;;;;;;;12.65;75.70;101154.97;5015852;28;20022;-42
2022/04/13 01:33:43;;;;;;;14.02;7.53;;;;;;;12.68;75.70;101151.19;5015606;28;20445;-41
2022/04/13 01:36:08;;;;;;;18.77;8.50;;;;;;;12.70;76.23;101160.38;5015419;28;20508;-42
2022/04/13 01:38:34;;;;;;;19.38;8.40;;;;;;;12.67;76.60;101159.97;5015748;28;20074;-41
2022/04/13 01:40:59;;;;;;;21.77;8.68;;;;;;;12.74;76.36;101161.59;5015708;28;20049;-42
2022/04/13 01:43:24;;;;;;;19.27;8.85;;;;;;;12.76;75.82;101164.00;5015651;28;20025;-41
2022/04/13 01:45:50;;;;;;;16.17;8.15;;;;;;;12.72;76.00;101161.00;5015840;28;20384;-42
2022/04/13 01:48:16;;;;;;;17.13;8.68;;;;;;;12.55;77.18;101163.09;5015173;28;20572;-41
2022/04/13 01:50:42;;;;;;;16.85;8.27;;;;;;;12.53;77.37;101162.47;5015584;28;20033;-42
2022/04/13 01:53:07;;;;;;;15.13;8.50;;;;;;;12.64;77.27;101171.53;5015298;28;20037;-41
2022/04/13 01:55:33;;;;;;;17.83;8.35;;;;;;;12.67;77.01;101165.97;5013852;28;20026;-46
2022/04/13 01:57:58;;;;;;;19.20;8.60;;;;;;;12.66;77.25;101172.16;5014967;28;20539;-41
2022/04/13 02:00:23;;;;;;;14.55;8.18;;;;;;;12.66;77.08;101172.16;5014635;28;20030;-40
2022/04/13 02:02:48;;;;;;;17.58;8.57;;;;;;;12.68;77.49;101175.31;5014933;28;20071;-42
2022/04/13 02:05:14;;;;;;;22.23;8.13;;;;;;;12.60;77.45;101168.53;5015533;28;20476;-42
2022/04/13 02:07:39;;;;;;;18.05;8.75;;;;;;;12.68;78.11;101174.53;5014849;28;20061;-41
2022/04/13 02:10:06;;;;;;;20.92;8.77;;;;;;;12.69;77.26;101168.34;5014778;28;20022;-42
2022/04/13 02:12:32;;;;;;;19.90;8.95;;;;;;;12.74;77.62;101174.56;5014209;28;20089;-42
2022/04/13 02:14:57;;;;;;;17.95;9.02;;;;;;;12.72;78.07;101173.19;5014262;28;20102;-42
2022/04/13 02:17:23;;;;;;;16.17;8.07;;;;;;;12.70;77.39;101168.16;5014547;28;20523;-42
2022/04/13 02:19:48;;;;;;;16.50;8.80;;;;;;;12.78;77.31;101175.81;5014747;28;20026;-42
2022/04/13 02:22:13;;;;;;;16.92;8.45;;;;;;;12.75;77.68;101176.19;5014807;28;20030;-41
2022/04/13 02:24:39;;;;;;;18.02;8.55;;;;;;;12.84;77.49;101174.22;5015074;28;20025;-42
2022/04/13 02:27:07;;;;;;;16.65;8.93;;;;;;;12.78;77.53;101170.63;5014449;28;20129;-42
2022/04/13 02:29:34;;;;;;;20.55;9.27;;;;;;;12.88;77.33;101173.63;5014728;28;20029;-42
2022/04/13 02:31:59;;;;;;;19.95;9.50;;;;;;;12.92;77.19;101181.84;5014684;28;20445;-42
2022/04/13 02:34:25;;;;;;;17.50;8.48;;;;;;;12.93;77.21;101173.06;5014406;28;20100;-42
2022/04/13 02:36:50;;;;;;;21.55;9.68;;;;;;;12.91;77.22;101180.25;4996838;28;20091;-42
2022/04/13 02:39:15;;;;;;;18.38;8.93;;;;;;;12.79;77.34;101161.81;5014348;28;20388;-42
2022/04/13 02:41:41;;;;;;;21.23;8.85;;;;;;;12.98;76.49;101175.91;4996584;28;20034;-42
2022/04/13 02:44:06;;;;;;;16.55;8.60;;;;;;;12.96;77.08;101171.91;5014205;28;20484;-41
2022/04/13 02:46:31;;;;;;;15.45;8.88;;;;;;;12.96;77.72;101177.06;5012831;28;20088;-42
2022/04/13 02:48:56;;;;;;;19.45;8.50;;;;;;;12.94;77.57;101185.03;5014103;28;20095;-42
2022/04/13 02:51:22;;;;;;;18.17;8.68;;;;;;;12.89;77.51;101197.81;5014386;28;20104;-41
2022/04/13 02:53:47;;;;;;;15.95;8.60;;;;;;;12.80;77.98;101191.16;4996474;28;20055;-42
2022/04/13 02:56:13;;;;;;;15.80;8.90;;;;;;;12.87;78.04;101182.44;5014337;28;20029;-49
2022/04/13 02:58:38;;;;;;;18.05;8.68;;;;;;;12.89;77.48;101192.63;5014013;28;20026;-42
2022/04/13 03:01:03;;;;;;;22.00;9.23;;;;;;;12.87;78.28;101189.41;5014009;28;20358;-42
2022/04/13 03:03:29;;;;;;;17.85;8.85;;;;;;;12.87;78.01;101189.41;5014108;28;20022;-42
2022/04/13 03:05:55;;;;;;;17.48;8.82;;;;;;;12.85;77.50;101189.59;5013919;28;20034;-42
2022/04/13 03:08:20;;;;;;;16.35;8.70;;;;;;;12.95;77.80;101199.63;5013838;28;20026;-41
2022/04/13 03:10:46;;;;;;;20.13;9.45;;;;;;;12.95;78.08;101191.84;5013810;28;20029;-42
2022/04/13 03:13:11;;;;;;;19.70;8.93;;;;;;;12.93;77.89;101195.63;5013597;28;20076;-41
2022/04/13 03:15:36;;;;;;;17.98;9.13;;;;;;;12.95;77.42;101198.84;5013989;28;20028;-41
2022/04/13 03:18:02;;;;;;;16.95;9.25;;;;;;;12.80;78.55;101193.75;5013709;28;20091;-41
2022/04/13 03:20:27;;;;;;;17.05;9.07;;;;;;;12.81;78.49;101200.56;5013513;28;20030;-42
2022/04/13 03:22:52;;;;;;;23.00;9.32;;;;;;;12.90;77.72;101209.78;5013508;28;20357;-42
2022/04/13 03:25:18;;;;;;;20.75;9.52;;;;;;;12.95;77.73;101209.22;5013531;28;20038;-42
2022/04/13 03:27:44;;;;;;;18.27;9.13;;;;;;;12.91;77.65;101216.56;5013830;28;20022;-41
2022/04/13 03:30:09;;;;;;;19.20;8.70;;;;;;;12.90;77.87;101209.78;5013589;28;20030;-41
2022/04/13 03:32:36;;;;;;;17.73;8.93;;;;;;;12.72;78.92;101207.69;5013858;28;20026;-40
2022/04/13 03:35:04;;;;;;;19.55;8.55;;;;;;;12.65;79.42;101212.81;5013517;28;20097;-39
2022/04/13 03:37:29;;;;;;;17.67;9.05;;;;;;;12.74;78.94;101216.06;5013366;28;20029;-40
2022/04/13 03:39:54;;;;;;;18.75;8.75;;;;;;;12.62;79.57;101202.03;5014025;28;20030;-39
2022/04/13 03:42:20;;;;;;;19.70;8.65;;;;;;;12.74;79.13;101221.25;5014039;28;20061;-40
2022/04/13 03:44:45;;;;;;;22.60;9.23;;;;;;;12.67;79.58;101215.22;5013737;28;20484;-41
2022/04/13 03:47:10;;;;;;;20.85;9.13;;;;;;;12.72;79.83;101230.22;5013386;28;20033;-41
2022/04/13 03:49:35;;;;;;;16.63;9.13;;;;;;;12.73;79.77;101231.81;4995772;28;20490;-41
2022/04/13 03:52:01;;;;;;;17.98;9.15;;;;;;;12.73;79.77;101229.22;5013357;28;20033;-41
2022/04/13 03:54:26;;;;;;;16.80;8.98;;;;;;;12.78;79.40;101226.88;5013681;28;20472;-42
2022/04/13 03:56:53;;;;;;;19.20;9.25;;;;;;;12.80;79.54;101243.03;5013573;28;20033;-42
2022/04/13 03:59:20;;;;;;;23.65;9.20;;;;;;;12.76;80.25;101234.81;5013477;28;20084;-42
2022/04/13 04:01:46;;;;;;;17.35;9.35;;;;;;;12.79;79.67;101241.44;5013364;28;20108;-42
2022/04/13 04:04:11;;;;;;;19.35;9.80;;;;;;;12.67;80.06;101245.53;5013306;28;20143;-42
2022/04/13 04:06:36;;;;;;;16.83;9.27;;;;;;;12.68;80.26;101244.53;5013497;28;20041;-42
2022/04/13 04:09:02;;;;;;;17.00;9.30;;;;;;;12.61;80.91;101242.72;5013189;28;20022;-42
2022/04/13 04:11:27;;;;;;;18.23;9.40;;;;;;;12.62;80.67;101248.69;5013049;28;20524;-42
2022/04/13 04:13:53;;;;;;;21.05;9.68;;;;;;;12.61;80.72;101250.50;5013512;28;20484;-42
2022/04/13 04:16:18;;;;;;;19.65;10.35;;;;;;;12.72;80.06;101244.00;5013474;28;20026;-42
2022/04/13 04:18:45;;;;;;;20.05;9.35;;;;;;;12.72;79.92;101241.41;5013411;28;20018;-42
2022/04/13 04:21:10;;;;;;;18.73;9.52;;;;;;;12.74;80.29;101246.38;5013362;28;20040;-42
2022/04/13 04:23:36;;;;;;;16.15;9.50;;;;;;;12.64;80.63;101252.69;5013397;28;20116;-42
2022/04/13 04:26:01;;;;;;;20.50;10.23;;;;;;;12.56;81.60;101257.22;5011871;28;20504;-42
2022/04/13 04:28:27;;;;;;;21.77;9.77;;;;;;;12.45;82.05;101250.75;5013320;28;20028;-42
2022/04/13 04:30:52;;;;;;;15.57;9.38;;;;;;;12.61;81.29;101257.47;4995376;28;20465;-42
2022/04/13 04:33:17;;;;;;;21.45;10.05;;;;;;;12.61;81.22;101254.88;5013427;28;20114;-42
2022/04/13 04:35:47;;;;;;;20.33;9.93;;;;;;;12.63;81.30;101258.88;5013192;28;20018;-42
2022/04/13 04:38:13;;;;;;;20.55;9.95;;;;;;;12.74;80.91;101270.50;5016598;28;20480;-42
2022/04/13 04:40:39;;;;;;;19.17;10.23;;;;;;;12.73;81.45;101275.91;5016570;28;20105;-41
2022/04/13 04:43:04;;;;;;;25.65;10.40;;;;;;;12.71;81.50;101270.09;5017078;28;20058;-42
2022/04/13 04:45:30;;;;;;;23.05;10.07;;;;;;;12.68;81.71;101273.88;5016611;28;20089;-41
2022/04/13 04:47:57;;;;;;;15.52;9.38;;;;;;;12.66;82.12;101281.06;5016442;28;20507;-42
2022/04/13 04:50:23;;;;;;;24.05;10.70;;;;;;;12.71;81.57;101278.66;5016534;28;20052;-42
2022/04/13 04:52:49;;;;;;;20.85;10.57;;;;;;;12.71;81.42;101277.88;5016441;28;20072;-42
2022/04/13 04:55:16;;;;;;;21.08;10.35;;;;;;;12.79;81.70;101288.09;4998485;28;20152;-40
2022/04/13 04:57:42;;;;;;;18.58;10.80;;;;;;;12.75;81.66;101294.69;5016132;28;20377;-41
2022/04/13 05:00:13;;;;;;;19.88;10.30;;;;;;;12.76;82.02;101296.28;5016179;28;20022;-42
2022/04/13 05:02:38;;;;;;;21.85;11.45;;;;;;;12.77;81.54;101295.28;5016405;28;20424;-42
2022/04/13 05:05:04;;;;;;;22.08;12.02;;;;;;;12.78;82.06;101305.47;5016185;28;20026;-39
2022/04/13 05:07:30;;;;;;;24.40;10.98;;;;;;;12.84;82.32;101311.69;4998896;28;20148;-39
2022/04/13 05:09:55;;;;;;;23.65;11.65;;;;;;;12.85;81.90;101308.09;5014606;28;20041;-40
2022/04/13 05:12:20;;;;;;;26.17;11.32;;;;;;;12.78;82.30;101315.03;5015495;28;20049;-39
2022/04/13 05:14:46;;;;;;;18.77;11.60;;;;;;;12.83;82.48;101316.09;5015670;28;20025;-40
2022/04/13 05:17:11;;;;;;;20.60;11.15;;;;;;;12.68;82.91;101317.94;5016012;28;20033;-41
2022/04/13 05:19:37;;;;;;;17.77;10.90;;;;;;;12.86;83.09;101325.28;4998281;28;20388;-41
2022/04/13 05:22:02;;;;;;;19.58;10.82;;;;;;;12.82;82.82;101337.00;5014396;28;20038;-41
2022/04/13 05:24:28;;;;;;;20.92;11.18;;;;;;;12.71;83.56;101343.50;5015672;28;20037;-41
2022/04/13 05:26:53;;;;;;;23.48;11.18;;;;;;;12.74;83.63;101347.50;5015725;28;20427;-42
2022/04/13 05:29:18;;;;;;;20.23;11.93;;;;;;;12.77;83.76;101340.16;5015499;28;20022;-41
2022/04/13 05:31:44;;;;;;;23.02;10.63;;;;;;;12.83;83.56;101341.19;5015738;28;20515;-42
2022/04/13 05:34:09;;;;;;;21.88;10.77;;;;;;;12.88;83.41;101346.63;5015332;28;20076;-41
2022/04/13 05:36:35;;;;;;;21.52;10.93;;;;;;;13.03;82.97;101349.97;5015605;28;20116;-41
2022/04/13 05:39:01;;;;;;;20.55;10.90;;;;;;;13.25;82.24;101355.06;5015220;28;20030;-42
2022/04/13 05:41:26;;;;;;;21.83;10.82;;;;;;;13.19;81.71;101350.66;5015197;28;20151;-42
2022/04/13 05:43:52;;;;;;;16.75;10.65;;;;;;;13.35;81.17;101357.34;5015350;28;20072;-42
2022/04/13 05:46:17;;;;;;;19.85;10.23;;;;;;;13.51;80.82;101357.84;5015332;28;20033;-42
2022/04/13 05:48:42;;;;;;;21.25;10.57;;;;;;;13.63;79.73;101360.69;5014731;28;20032;-42
2022/04/13 05:51:09;;;;;;;16.70;10.48;;;;;;;13.83;79.45;101375.56;4997874;28;20112;-42
2022/04/13 05:53:37;;;;;;;19.75;10.40;;;;;;;13.93;78.51;101376.03;5015360;28;20104;-43
2022/04/13 05:56:03;;;;;;;20.80;10.23;;;;;;;14.07;78.00;101382.03;5014995;28;20030;-42
2022/04/13 05:58:29;;;;;;;22.33;10.30;;;;;;;14.17;77.43;101378.09;4997296;28;20030;-42
2022/04/13 06:00:55;;;;;;;21.17;10.02;;;;;;;13.93;77.56;101365.63;5015068;28;20538;-42
2022/04/13 06:03:22;;;;;;;17.63;10.32;;;;;;;14.12;77.66;101377.06;5014826;28;20030;-44
2022/04/13 06:05:47;;;;;;;20.05;10.13;;;;;;;14.33;77.04;101381.34;5014979;28;20026;-41
2022/04/13 06:08:13;;;;;;;23.45;10.35;;;;;;;16.10;71.92;101380.53;5014798;28;20025;-42
2022/04/13 06:10:38;;;;;;;20.10;10.18;;;;;;;18.01;62.80;101378.22;4996933;28;20057;-42
2022/04/13 06:13:04;;;;;;;18.45;10.00;;;;;;;16.79;65.85;101376.28;5014449;28;20056;-41
2022/04/13 06:15:31;;;;;;;18.02;9.88;;;;;;;15.86;69.77;101378.66;5014365;28;20026;-40
2022/04/13 06:17:56;;;;;;;21.08;10.55;;;;;;;15.48;71.50;101390.56;5013289;28;20026;-41
2022/04/13 06:20:22;;;;;;;21.10;10.07;;;;;;;15.29;72.55;101387.00;5013185;28;20097;-42
2022/04/13 06:22:48;;;;;;;18.10;10.23;;;;;;;15.46;71.88;101396.97;4996648;28;20372;-41
2022/04/13 06:25:13;;;;;;;20.30;10.10;;;;;;;15.23;72.54;101398.22;5013765;28;20101;-42
2022/04/13 06:27:42;;;;;;;17.08;9.55;;;;;;;15.16;73.13;101400.00;4996373;28;20021;-41
2022/04/13 06:30:08;;;;;;;18.48;9.45;;;;;;;15.57;72.07;101409.38;5014815;28;20349;-42
2022/04/13 06:32:39;;;;;;;19.50;9.43;;;;;;;15.92;70.68;101422.13;5014579;28;20379;-41
2022/04/13 06:35:06;;;;;;;17.45;9.20;;;;;;;17.80;64.48;101423.94;5014408;28;20026;-42
2022/04/13 06:37:32;;;;;;;18.13;8.50;;;;;;;18.26;60.99;101438.25;4980786;28;20349;-41
2022/04/13 06:39:57;;;;;;;19.10;8.10;;;;;;;19.46;57.77;101437.19;5014340;28;20022;-42
2022/04/13 06:42:23;;;;;;;16.00;8.05;;;;;;;17.63;61.64;101436.75;5014243;28;20053;-41
2022/04/13 06:44:50;;;;;;;16.48;8.00;;;;;;;16.66;66.87;101441.59;5015118;28;20064;-42
2022/04/13 06:47:15;;;;;;;12.73;7.15;;;;;;;18.52;60.85;101444.16;5014982;28;20382;-42
2022/04/13 06:49:41;;;;;;;18.88;7.78;;;;;;;19.82;56.85;101441.38;5012682;28;20117;-42
2022/04/13 06:52:06;;;;;;;16.40;7.47;;;;;;;20.19;54.12;101438.38;5014194;28;20120;-42
2022/04/13 06:54:31;;;;;;;15.90;7.30;;;;;;;17.69;61.75;101438.50;5013866;28;20380;-42
2022/04/13 06:56:56;;;;;;;13.00;7.03;;;;;;;17.14;64.17;101457.53;4996236;28;20034;-42
2022/04/13 06:59:22;;;;;;;13.55;7.40;;;;;;;17.00;64.99;101450.81;5013312;28;20014;-39
2022/04/13 07:01:47;;;;;;;13.25;7.22;;;;;;;17.47;63.62;101446.00;5013856;28;20109;-41
2022/04/13 07:04:12;;;;;;;11.80;7.00;;;;;;;17.78;62.99;101452.09;5014022;28;20025;-42
2022/04/13 07:06:38;;;;;;;15.15;7.32;;;;;;;18.83;59.20;101467.47;5013872;28;20097;-42
2022/04/13 07:09:04;;;;;;;13.82;6.35;;;;;;;20.02;55.98;101464.59;5013878;28;20361;-41
2022/04/13 07:11:29;;;;;;;12.68;6.45;;;;;;;23.09;47.20;101465.22;4992266;28;20054;-41
2022/04/13 07:13:55;;;;;;;14.07;5.82;;;;;;;20.99;51.70;101465.47;4993011;28;20049;-42
2022/04/13 07:16:21;;;;;;;14.88;5.90;;;;;;;20.65;52.20;101468.09;4994328;28;20380;-42
2022/04/13 07:18:46;;;;;;;10.57;6.18;;;;;;;17.60;61.54;101474.56;4992840;28;20529;-42
2022/04/13 07:21:14;;;;;;;13.50;6.35;;;;;;;16.68;65.22;101479.50;4992636;28;20026;-41
2022/04/13 07:23:40;;;;;;;11.02;5.72;;;;;;;17.03;64.33;101479.13;4992672;28;20038;-43
2022/04/13 07:26:05;;;;;;;14.38;6.13;;;;;;;18.10;60.69;101488.59;4992354;28;20030;-41
2022/04/13 07:28:30;;;;;;;13.95;5.45;;;;;;;19.21;57.51;101487.22;4994024;28;20479;-42
2022/04/13 07:30:55;;;;;;;15.88;5.90;;;;;;;20.32;54.31;101487.19;4993627;28;20036;-44
2022/04/13 07:33:21;;;;;;;13.95;5.68;;;;;;;19.13;56.77;101490.16;4994211;28;20453;-42
2022/04/13 07:35:46;;;;;;;11.52;5.35;;;;;;;19.97;55.36;101497.81;4994163;28;20045;-41
2022/04/13 07:38:13;;;;;;;12.70;5.07;;;;;;;21.19;50.58;101472.88;4960432;28;20026;-42
2022/04/13 07:40:39;;;;;;;12.55;5.35;;;;;;;20.06;53.21;101473.59;4992677;28;20177;-42
2022/04/13 07:43:07;;;;;;;14.85;5.90;;;;;;;19.81;54.45;101496.69;4994055;28;20061;-42
2022/04/13 07:45:32;;;;;;;10.20;5.28;;;;;;;18.68;58.75;101494.03;4994000;28;20058;-42
2022/04/13 07:47:58;;;;;;;13.00;5.47;;;;;;;17.89;59.41;101500.25;4993849;28;20061;-42
2022/04/13 07:50:23;;;;;;;11.70;5.30;;;;;;;17.77;60.56;101497.53;4993067;28;20033;-42
2022/04/13 07:52:49;;;;;;;12.90;5.32;;;;;;;17.64;61.27;101498.50;4993930;28;20029;-42
2022/04/13 07:55:14;;;;;;;11.10;6.20;;;;;;;17.36;62.31;101504.16;4992887;28;20022;-42
2022/04/13 07:57:41;;;;;;;10.80;5.63;;;;;;;17.04;63.20;101509.44;4991813;28;20093;-42
2022/04/13 08:00:09;;;;;;;13.60;5.95;;;;;;;17.42;62.06;101508.53;4992216;28;20023;-42
2022/04/13 08:02:36;;;;;;;12.85;5.50;;;;;;;17.28;62.21;101518.28;4975464;28;20048;-43
2022/04/13 08:05:01;;;;;;;12.75;5.53;;;;;;;17.49;62.36;101511.91;4993119;28;20088;-42
2022/04/13 08:07:26;;;;;;;13.15;5.63;;;;;;;17.59;61.65;101517.41;4992260;28;20050;-41
2022/04/13 08:09:52;;;;;;;13.60;5.50;;;;;;;17.96;60.54;101521.94;4993827;28;20022;-41
2022/04/13 08:12:17;;;;;;;13.57;5.63;;;;;;;18.65;59.03;101527.72;4994338;28;20382;-42
2022/04/13 08:14:46;;;;;;;14.57;5.40;;;;;;;18.63;58.70;101530.56;4997238;28;20026;-41
2022/04/13 08:17:12;;;;;;;15.30;6.22;;;;;;;18.23;60.47;101533.66;4995866;28;20077;-42
2022/04/13 08:19:37;;;;;;;14.80;6.22;;;;;;;18.39;60.25;101529.66;4979472;28;20026;-44
2022/04/13 08:22:03;;;;;;;14.10;6.25;;;;;;;18.67;58.65;101539.59;4997446;28;20488;-41
2022/04/13 08:24:29;;;;;;;12.95;5.90;;;;;;;17.40;62.24;101546.34;4997484;28;20080;-42
2022/04/13 08:26:54;;;;;;;13.15;5.90;;;;;;;17.80;61.83;101542.38;4997440;28;20072;-42
2022/04/13 08:29:19;;;;;;;14.88;6.07;;;;;;;17.54;61.94;101548.63;4996558;28;20453;-42
2022/04/13 08:31:45;;;;;;;11.98;5.60;;;;;;;17.43;63.23;101549.31;4994785;28;20026;-42
2022/04/13 08:34:10;;;;;;;13.63;5.93;;;;;;;17.40;63.63;101547.13;4996754;28;20478;-41
2022/04/13 08:36:35;;;;;;;13.20;5.88;;;;;;;17.30;64.28;101544.22;4997205;28;20031;-42
2022/04/13 08:39:01;;;;;;;13.35;6.20;;;;;;;16.92;64.85;101543.25;4996379;28;20100;-41
2022/04/13 08:41:46;;;;;;;17.40;5.88;;;;;;;16.85;65.75;101534.66;4997169;28;20404;-42
2022/04/13 08:44:22;;;;;;;12.68;5.53;;;;;;;16.93;66.24;101538.84;4997107;28;20481;-42
2022/04/13 08:46:49;;;;;;;13.48;5.82;;;;;;;16.80;66.11;101544.94;4997686;28;20041;-41
2022/04/13 08:49:15;;;;;;;12.95;5.07;;;;;;;16.61;65.72;101536.16;4995011;28;20030;-42
2022/04/13 08:51:40;;;;;;;15.30;5.57;;;;;;;16.49;66.71;101542.25;4996990;28;20057;-42
2022/04/13 08:54:12;;;;;;;17.13;5.90;;;;;;;16.29;66.96;101537.91;4995295;28;20069;-41
2022/04/13 08:56:39;;;;;;;15.95;6.00;;;;;;;16.40;67.15;101544.28;4996544;28;20540;-41
2022/04/13 08:59:16;;;;;;;14.95;6.00;;;;;;;16.16;68.05;101558.81;4995816;28;20422;-41
2022/04/13 09:01:47;;;;;;;11.43;5.55;;;;;;;16.02;68.74;101564.06;4994900;28;20038;-42
2022/04/13 09:04:16;;;;;;;18.42;6.00;;;;;;;16.07;68.90;101562.66;4996142;28;20030;-42
2022/04/13 09:06:42;;;;;;;14.35;6.15;;;;;;;16.19;68.42;101568.81;4996611;28;20145;-42
2022/04/13 09:09:30;;;;;;;14.52;5.88;;;;;;;16.45;68.16;101563.50;4996756;28;20054;-42
2022/04/13 09:11:58;;;;;;;20.33;6.28;;;;;;;16.41;68.39;101556.31;5005038;28;20132;-41
2022/04/13 09:14:23;;;;;;;15.70;6.10;;;;;;;16.26;68.89;101571.44;5015019;28;20053;-44
2022/04/13 09:16:50;;;;;;;18.48;6.05;;;;;;;16.29;68.53;101574.44;5015784;28;20049;-43
2022/04/13 09:19:17;;;;;;;15.60;5.90;;;;;;;16.34;67.48;101573.78;5015758;28;20041;-41
2022/04/13 09:21:43;;;;;;;15.35;5.82;;;;;;;16.22;67.92;101573.63;5015607;28;20101;-42
2022/04/13 09:24:09;;;;;;;12.32;5.80;;;;;;;16.28;67.31;101574.63;4997627;28;20113;-42
2022/04/13 09:26:35;;;;;;;16.30;6.05;;;;;;;16.39;66.99;101571.38;5015160;28;20040;-41
2022/04/13 09:29:01;;;;;;;17.10;5.53;;;;;;;16.61;67.06;101575.31;5015321;28;20026;-42
2022/04/13 09:31:26;;;;;;;17.20;5.85;;;;;;;16.68;66.29;101580.50;5015554;28;20080;-42
2022/04/13 09:33:51;;;;;;;13.70;5.10;;;;;;;16.32;66.48;101587.06;5015483;28;20030;-41
2022/04/13 09:36:17;;;;;;;15.23;5.38;;;;;;;16.53;67.29;101595.63;5015429;28;20026;-42
2022/04/13 09:38:42;;;;;;;10.82;4.95;;;;;;;16.39;67.63;101600.88;5015276;28;20021;-41
2022/04/13 09:41:10;;;;;;;14.77;5.75;;;;;;;16.02;68.77;101613.59;5014066;28;20042;-41
2022/04/13 09:43:36;;;;;;;11.32;5.40;;;;;;;16.22;68.38;101620.56;4997091;28;20032;-42
2022/04/13 09:46:02;;;;;;;14.13;5.15;;;;;;;16.14;68.40;101636.41;4996968;28;20022;-42
2022/04/13 09:48:29;;;;;;;14.32;5.30;;;;;;;16.33;68.06;101638.19;5015209;28;20025;-42
2022/04/13 09:50:57;;;;;;;14.18;5.70;;;;;;;16.01;68.22;101635.44;5015636;28;20030;-43
2022/04/13 09:53:23;;;;;;;15.85;6.15;;;;;;;16.01;68.29;101630.22;5015460;28;20017;-40
2022/04/13 09:55:50;;;;;;;17.10;6.70;;;;;;;16.09;68.65;101631.84;4997674;28;20026;-41
2022/04/13 09:58:19;;;;;;;16.58;6.10;;;;;;;15.92;69.52;101634.03;5015081;28;20496;-41
2022/04/13 10:00:47;;;;;;;15.57;6.95;;;;;;;15.79;70.09;101634.88;5014832;28;20053;-41
2022/04/13 10:03:23;;;;;;;16.48;7.25;;;;;;;15.88;69.64;101630.25;5014710;28;20037;-42
2022/04/13 10:05:50;;;;;;;15.73;6.70;;;;;;;16.00;69.76;101633.84;5014866;28;20025;-42
2022/04/13 10:08:22;;;;;;;16.30;6.40;;;;;;;16.15;69.12;101636.22;4997085;28;20417;-42
2022/04/13 10:10:48;;;;;;;12.48;6.57;;;;;;;16.06;69.01;101649.69;4997829;28;20034;-41
2022/04/13 10:13:31;;;;;;;15.98;7.05;;;;;;;16.12;69.05;101644.47;5013587;28;20057;-41
2022/04/13 10:15:58;;;;;;;25.65;6.90;;;;;;;16.35;68.60;101654.47;5013935;28;20116;-42
2022/04/13 10:18:24;;;;;;;14.52;6.60;;;;;;;16.02;69.48;101657.09;5014258;28;20028;-42
2022/04/13 10:20:49;;;;;;;14.10;6.20;;;;;;;16.19;69.47;101662.69;5014457;28;20112;-43
2022/04/13 10:23:15;;;;;;;18.23;6.15;;;;;;;16.36;68.40;101666.47;5014822;28;20361;-41
2022/04/13 10:25:41;;;;;;;14.70;6.18;;;;;;;16.50;67.68;101663.84;5013866;28;20045;-42
2022/04/13 10:28:06;;;;;;;15.05;5.80;;;;;;;16.26;68.67;101667.94;4996515;28;20026;-42
2022/04/13 10:30:38;;;;;;;17.13;6.00;;;;;;;16.09;69.17;101664.94;5014092;28;20132;-41
2022/04/13 10:33:12;;;;;;;13.90;5.95;;;;;;;15.95;69.74;101675.34;5013036;28;20030;-42
2022/04/13 10:35:39;;;;;;;19.25;6.70;;;;;;;15.58;70.80;101663.66;5012500;28;20487;-41
2022/04/13 10:38:05;;;;;;;17.95;6.97;;;;;;;15.51;71.22;101676.69;5012975;28;20028;-42
2022/04/13 10:40:34;;;;;;;17.23;6.40;;;;;;;15.64;71.37;101672.50;5012828;28;20029;-41
2022/04/13 10:43:01;;;;;;;17.90;6.53;;;;;;;16.01;70.23;101666.72;5012643;28;20411;-41
2022/04/13 10:45:28;;;;;;;17.60;7.00;;;;;;;16.04;70.06;101654.28;4994645;28;20030;-42
2022/04/13 10:47:58;;;;;;;14.65;6.80;;;;;;;16.23;71.78;101674.34;5013669;28;20030;-42
2022/04/13 10:50:55;;;;;;;14.10;6.43;;;;;;;16.34;72.49;101672.91;5012874;28;20030;-40
2022/04/13 10:53:43;;;;;;;14.50;6.60;;;;;;;16.46;71.57;101674.69;5014736;28;20393;-42
2022/04/13 10:56:11;;;;;;;17.40;6.63;;;;;;;16.46;70.40;101666.09;5014566;28;20060;-42
2022/04/13 10:58:47;;;;;;;17.00;6.47;;;;;;;16.54;69.35;101675.47;5013769;28;20033;-42
2022/04/13 11:01:15;;;;;;;16.95;6.82;;;;;;;16.59;70.47;101679.06;5014432;28;20030;-42
2022/04/13 11:03:42;;;;;;;16.05;6.95;;;;;;;16.54;69.32;101678.88;5012741;28;20061;-42
2022/04/13 11:06:11;;;;;;;14.95;6.90;;;;;;;16.23;70.97;101675.16;4996011;28;20392;-42
2022/04/13 11:09:01;;;;;;;14.95;6.70;;;;;;;16.47;70.14;101685.94;4994431;28;20042;-42
2022/04/13 11:11:28;;;;;;;15.35;6.45;;;;;;;16.22;70.29;101693.59;5012735;28;20483;-42
2022/04/13 11:13:54;;;;;;;15.82;6.65;;;;;;;16.08;70.07;101694.59;5013493;28;20068;-42